OERK/RUH METAR and TAF weather

Enter ICAO airport designator
Station Type Date Time Source
OERK METAR 2022/05/23 14:00 UTC NOAA

OERK 231400Z 33017G27KT 1000 BLSA VV010 42/00 Q1004 TEMPO 0500


Station Type Date Time Source
OERK Decoded METAR 2022/05/23 14:00 UTC NOAA

King Khaled International Airport, Saudi Arabia (OERK) 24-56N 046-43E 612M
May 23, 2022 - 10:00 AM EDT / 2022.05.23 1400 UTC
Wind: from the NNW (330 degrees) at 20 MPH (17 KT) gusting to 31 MPH (27 KT):0
Visibility: less than 1 mile:0
Sky conditions: obscured
Weather: blowing sand
Temperature: 107 F (42 C)
Dew Point: 32 F (0 C)
Relative Humidity: 7%
Pressure (altimeter): 29.65 in. Hg (1004 hPa)
ob: OERK 231400Z 33017G27KT 1000 BLSA VV010 42/00 Q1004 TEMPO 0500
cycle: 14

Station Type Date Time Source
OERK TAF 2022/05/23 12:33 UTC NOAA

TAF OERK 231100Z 2312/2418 30010KT 5000 DU NSC
TEMPO 2312/2322 30022KT 2000 BLDU PROB30
TEMPO 2314/2319 0800 SS
BECMG 2404/2406 03015KT

Example: see airport list